createdAt,value
2022-09-28T00:00:16.286Z,2
2022-09-28T00:01:16.452Z,2
2022-09-28T00:02:16.525Z,2
2022-09-28T00:03:16.370Z,2
2022-09-28T00:04:16.318Z,2
2022-09-28T00:05:16.373Z,2
2022-09-28T00:06:16.385Z,2
2022-09-28T00:07:16.385Z,2
2022-09-28T00:08:16.387Z,2
2022-09-28T00:09:16.652Z,2
2022-09-28T00:10:16.423Z,2
2022-09-28T00:11:16.312Z,2
2022-09-28T00:12:16.312Z,2
2022-09-28T00:13:16.387Z,2
2022-09-28T00:14:16.362Z,2
2022-09-28T00:15:16.340Z,2
2022-09-28T00:16:16.389Z,2
2022-09-28T00:17:16.356Z,2
2022-09-28T00:18:16.365Z,3
2022-09-28T00:19:16.483Z,2
2022-09-28T00:20:16.367Z,2
2022-09-28T00:21:16.379Z,2
2022-09-28T00:22:16.377Z,2
2022-09-28T00:23:16.306Z,2
2022-09-28T00:24:16.393Z,2
2022-09-28T00:25:16.341Z,2
2022-09-28T00:26:16.306Z,2
2022-09-28T00:27:16.410Z,2
2022-09-28T00:28:16.334Z,2
2022-09-28T00:29:16.535Z,3
2022-09-28T00:30:16.454Z,2
2022-09-28T00:31:16.378Z,2
2022-09-28T00:32:16.446Z,3
2022-09-28T00:33:16.456Z,3
2022-09-28T00:34:16.364Z,3
2022-09-28T00:35:16.365Z,3
2022-09-28T00:36:16.373Z,4
2022-09-28T00:37:16.302Z,3
2022-09-28T00:38:16.309Z,3
2022-09-28T00:39:16.500Z,3
2022-09-28T00:40:16.458Z,3
2022-09-28T00:41:16.389Z,4
2022-09-28T00:42:16.302Z,4
2022-09-28T00:43:16.434Z,6
2022-09-28T00:44:16.316Z,4
2022-09-28T00:45:16.349Z,5
2022-09-28T00:46:16.385Z,5
2022-09-28T00:47:16.344Z,5
2022-09-28T00:48:16.461Z,6
2022-09-28T00:49:16.483Z,6
2022-09-28T00:50:16.351Z,5
2022-09-28T00:51:16.360Z,5
2022-09-28T00:52:16.366Z,4
2022-09-28T00:53:16.311Z,4
2022-09-28T00:54:16.296Z,5
2022-09-28T00:55:16.397Z,5
2022-09-28T00:56:16.353Z,5
2022-09-28T00:57:16.403Z,5
2022-09-28T00:58:16.447Z,6
2022-09-28T00:59:16.567Z,5
2022-09-28T01:00:16.307Z,6
2022-09-28T01:01:16.424Z,6
2022-09-28T01:02:16.418Z,6
2022-09-28T01:03:16.348Z,6
2022-09-28T01:04:16.325Z,6
2022-09-28T01:05:16.293Z,7
2022-09-28T01:06:16.365Z,7
2022-09-28T01:07:16.298Z,7
2022-09-28T01:08:16.323Z,7
2022-09-28T01:09:16.532Z,7
2022-09-28T01:10:16.386Z,6
2022-09-28T01:11:16.407Z,6
2022-09-28T01:12:16.412Z,7
2022-09-28T01:13:16.411Z,8
2022-09-28T01:14:16.403Z,8
2022-09-28T01:15:16.307Z,8
2022-09-28T01:16:16.437Z,9
2022-09-28T01:17:16.340Z,14
2022-09-28T01:18:16.320Z,10
2022-09-28T01:19:16.476Z,9
2022-09-28T01:20:16.345Z,11
2022-09-28T01:21:16.364Z,8
2022-09-28T01:22:16.305Z,7
2022-09-28T01:23:16.370Z,6
2022-09-28T01:24:16.365Z,7
2022-09-28T01:25:16.383Z,6
2022-09-28T01:26:16.306Z,5
2022-09-28T01:27:16.395Z,5
2022-09-28T01:28:16.404Z,5
2022-09-28T01:29:16.554Z,4
2022-09-28T01:30:16.407Z,4
2022-09-28T01:31:16.340Z,4
2022-09-28T01:32:16.481Z,3
2022-09-28T01:33:16.555Z,4
2022-09-28T01:34:16.605Z,4
2022-09-28T01:35:16.471Z,4
2022-09-28T01:36:16.298Z,3
2022-09-28T01:37:16.609Z,4
2022-09-28T01:38:16.675Z,3
2022-09-28T01:39:16.357Z,3
2022-09-28T01:40:16.463Z,4
2022-09-28T01:41:16.292Z,3
2022-09-28T01:42:16.363Z,3
2022-09-28T01:43:16.348Z,3
2022-09-28T01:44:16.303Z,3
2022-09-28T01:45:16.295Z,3
2022-09-28T01:46:16.378Z,3
2022-09-28T01:47:16.340Z,3
2022-09-28T01:48:16.302Z,3
2022-09-28T01:49:16.534Z,3
2022-09-28T01:50:16.340Z,3
2022-09-28T01:51:16.304Z,3
2022-09-28T01:52:16.297Z,3
2022-09-28T01:53:16.301Z,3
2022-09-28T01:54:16.294Z,3
2022-09-28T01:55:16.290Z,3
2022-09-28T01:56:16.301Z,2
2022-09-28T01:57:16.328Z,3
2022-09-28T01:58:16.378Z,2
2022-09-28T01:59:16.310Z,3
2022-09-28T02:00:16.292Z,3
2022-09-28T02:01:16.389Z,3
2022-09-28T02:02:16.421Z,3
2022-09-28T02:03:16.304Z,2
2022-09-28T02:04:16.297Z,2
2022-09-28T02:05:16.353Z,3
2022-09-28T02:06:16.349Z,3
2022-09-28T02:07:16.298Z,2
2022-09-28T02:08:16.299Z,2
2022-09-28T02:09:16.381Z,3
2022-09-28T02:10:16.307Z,3
2022-09-28T02:11:16.552Z,2
2022-09-28T02:12:16.429Z,2
2022-09-28T02:13:16.496Z,3
2022-09-28T02:14:16.561Z,3
2022-09-28T02:15:16.311Z,3
2022-09-28T02:16:16.404Z,3
2022-09-28T02:17:16.304Z,3
2022-09-28T02:18:16.339Z,2
2022-09-28T02:19:16.542Z,3
2022-09-28T02:20:16.310Z,3
2022-09-28T02:21:16.340Z,2
2022-09-28T02:22:16.294Z,2
2022-09-28T02:23:16.303Z,2
2022-09-28T02:24:21.228Z,2
2022-09-28T02:25:16.293Z,3
2022-09-28T02:26:16.299Z,2
2022-09-28T02:27:16.303Z,2
2022-09-28T02:28:16.336Z,3
2022-09-28T02:29:16.346Z,3
2022-09-28T02:30:16.290Z,2
2022-09-28T02:31:16.380Z,2
2022-09-28T02:32:16.286Z,2
2022-09-28T02:33:16.300Z,2
2022-09-28T02:34:16.288Z,2
2022-09-28T02:35:16.302Z,3
2022-09-28T02:36:16.387Z,2
2022-09-28T02:37:16.343Z,2
2022-09-28T02:38:16.291Z,2
2022-09-28T02:39:16.435Z,2
2022-09-28T02:40:16.415Z,3
2022-09-28T02:41:16.367Z,2
2022-09-28T02:42:16.359Z,3
2022-09-28T02:43:16.398Z,2
2022-09-28T02:44:16.342Z,3
2022-09-28T02:45:16.374Z,3
2022-09-28T02:46:16.445Z,2
2022-09-28T02:47:16.291Z,3
2022-09-28T02:48:19.103Z,3
2022-09-28T02:49:21.819Z,3
2022-09-28T02:50:16.303Z,3
2022-09-28T02:51:16.294Z,3
2022-09-28T02:52:16.368Z,3
2022-09-28T02:53:16.427Z,3
2022-09-28T02:54:18.827Z,3
2022-09-28T02:55:16.367Z,3
2022-09-28T02:56:16.353Z,3
2022-09-28T02:57:16.360Z,3
2022-09-28T02:58:16.390Z,3
2022-09-28T02:59:16.496Z,3
2022-09-28T03:00:16.376Z,3
2022-09-28T03:01:16.470Z,3
2022-09-28T03:02:16.374Z,3
2022-09-28T03:03:16.305Z,3
2022-09-28T03:04:16.408Z,3
2022-09-28T03:05:16.413Z,4
2022-09-28T03:06:16.290Z,3
2022-09-28T03:07:16.423Z,3
2022-09-28T03:08:16.421Z,4
2022-09-28T03:09:16.452Z,4
2022-09-28T03:10:16.332Z,4
2022-09-28T03:11:16.346Z,4
2022-09-28T03:12:16.348Z,4
2022-09-28T03:13:16.324Z,4
2022-09-28T03:14:16.364Z,4
2022-09-28T03:15:16.365Z,4
2022-09-28T03:16:16.390Z,4
2022-09-28T03:17:16.378Z,4
2022-09-28T03:18:16.291Z,4
2022-09-28T03:19:16.435Z,4
2022-09-28T03:20:16.419Z,4
2022-09-28T03:21:16.306Z,4
2022-09-28T03:22:16.301Z,5
2022-09-28T03:23:25.021Z,5
2022-09-28T03:24:16.432Z,4
2022-09-28T03:25:16.318Z,4
2022-09-28T03:26:16.338Z,5
2022-09-28T03:27:16.354Z,4
2022-09-28T03:28:16.373Z,5
2022-09-28T03:29:16.433Z,5
2022-09-28T03:30:16.361Z,5
2022-09-28T03:31:16.419Z,5
2022-09-28T03:32:16.390Z,4
2022-09-28T03:33:16.306Z,5
2022-09-28T03:34:16.388Z,5
2022-09-28T03:35:16.292Z,5
2022-09-28T03:36:16.309Z,6
2022-09-28T03:37:16.326Z,5
2022-09-28T03:38:16.312Z,5
2022-09-28T03:39:16.900Z,5
2022-09-28T03:40:16.331Z,6
2022-09-28T03:41:16.332Z,6
2022-09-28T03:42:16.336Z,6
2022-09-28T03:43:16.368Z,6
2022-09-28T03:44:16.281Z,6
2022-09-28T03:45:16.274Z,6
2022-09-28T03:46:16.400Z,6
2022-09-28T03:47:16.373Z,6
2022-09-28T03:48:18.571Z,6
2022-09-28T03:49:16.568Z,7
2022-09-28T03:50:16.283Z,6
2022-09-28T03:51:16.571Z,7
2022-09-28T03:52:16.412Z,7
2022-09-28T03:53:16.284Z,6
2022-09-28T03:54:16.418Z,6
2022-09-28T03:55:16.418Z,7
2022-09-28T03:56:16.310Z,6
2022-09-28T03:57:16.327Z,7
2022-09-28T03:58:16.360Z,7
2022-09-28T03:59:16.521Z,6
2022-09-28T04:00:16.283Z,7
2022-09-28T04:01:17.496Z,7
2022-09-28T04:02:16.399Z,7
2022-09-28T04:03:16.374Z,7
2022-09-28T04:04:16.307Z,7
2022-09-28T04:05:16.290Z,7
2022-09-28T04:06:16.298Z,7
2022-09-28T04:07:16.294Z,7
2022-09-28T04:08:16.542Z,7
2022-09-28T04:09:16.425Z,8
2022-09-28T04:10:16.414Z,7
2022-09-28T04:11:16.302Z,7
2022-09-28T04:12:16.321Z,8
2022-09-28T04:13:16.681Z,7
2022-09-28T04:14:16.339Z,8
2022-09-28T04:15:16.345Z,8
2022-09-28T04:16:16.444Z,8
2022-09-28T04:17:16.355Z,8
2022-09-28T04:18:16.340Z,9
2022-09-28T04:19:16.500Z,8
2022-09-28T04:20:16.334Z,8
2022-09-28T04:21:16.378Z,8
2022-09-28T04:22:16.418Z,9
2022-09-28T04:23:16.406Z,8
2022-09-28T04:24:16.300Z,9
2022-09-28T04:25:16.343Z,9
2022-09-28T04:26:16.338Z,9
2022-09-28T04:27:16.323Z,9
2022-09-28T04:28:16.352Z,9
2022-09-28T04:29:16.343Z,9
2022-09-28T04:30:16.343Z,10
2022-09-28T04:31:16.426Z,10
2022-09-28T04:32:16.350Z,9
2022-09-28T04:33:16.342Z,10
2022-09-28T04:34:16.358Z,11
2022-09-28T04:35:16.378Z,10
2022-09-28T04:36:16.369Z,10
2022-09-28T04:37:16.393Z,10
2022-09-28T04:38:26.803Z,11
2022-09-28T04:39:16.322Z,11
2022-09-28T04:40:16.363Z,11
2022-09-28T04:41:16.417Z,11
2022-09-28T04:42:16.318Z,11
2022-09-28T04:43:16.352Z,11
2022-09-28T04:44:16.289Z,13
2022-09-28T04:45:16.343Z,23
2022-09-28T04:46:16.413Z,13
2022-09-28T04:47:16.347Z,12
2022-09-28T04:48:16.353Z,12
2022-09-28T04:49:16.455Z,13
2022-09-28T04:50:16.286Z,13
2022-09-28T04:51:16.397Z,12
2022-09-28T04:52:18.449Z,12
2022-09-28T04:53:16.306Z,12
2022-09-28T04:54:16.297Z,12
2022-09-28T04:55:16.396Z,12
2022-09-28T04:56:16.411Z,11
2022-09-28T04:57:16.326Z,11
2022-09-28T04:58:16.330Z,11
2022-09-28T04:59:16.476Z,12
2022-09-28T05:00:16.323Z,12
2022-09-28T05:01:16.435Z,12
2022-09-28T05:02:16.400Z,12
2022-09-28T05:03:16.303Z,11
2022-09-28T05:04:16.354Z,11
2022-09-28T05:05:16.377Z,12
2022-09-28T05:06:16.368Z,11
2022-09-28T05:07:16.280Z,12
2022-09-28T05:08:16.380Z,12
2022-09-28T05:09:16.579Z,12
2022-09-28T05:10:16.286Z,11
2022-09-28T05:11:16.297Z,11
2022-09-28T05:12:16.422Z,11
2022-09-28T05:13:16.335Z,11
2022-09-28T05:14:16.312Z,11
2022-09-28T05:15:16.320Z,12
2022-09-28T05:16:16.492Z,12
2022-09-28T05:17:16.350Z,11
2022-09-28T05:18:16.341Z,11
2022-09-28T05:19:16.312Z,12
2022-09-28T05:20:16.328Z,12
2022-09-28T05:21:16.369Z,13
2022-09-28T05:22:16.376Z,12
2022-09-28T05:23:16.377Z,13
2022-09-28T05:24:16.310Z,12
2022-09-28T05:25:16.385Z,13
2022-09-28T05:26:16.409Z,13
2022-09-28T05:27:16.407Z,13
2022-09-28T05:28:16.424Z,14
2022-09-28T05:29:16.513Z,13
2022-09-28T05:30:16.295Z,14
2022-09-28T05:31:16.403Z,15
2022-09-28T05:32:16.330Z,15
2022-09-28T05:33:16.306Z,16
2022-09-28T05:34:16.304Z,15
2022-09-28T05:35:16.369Z,15
2022-09-28T05:36:16.353Z,15
2022-09-28T05:37:16.294Z,15
2022-09-28T05:38:16.384Z,15
2022-09-28T05:39:16.559Z,17
2022-09-28T05:40:16.453Z,16
2022-09-28T05:41:16.394Z,15
2022-09-28T05:42:16.403Z,15
2022-09-28T05:43:16.424Z,18
2022-09-28T05:44:16.594Z,18
2022-09-28T05:45:16.313Z,15
2022-09-28T05:46:16.351Z,16
2022-09-28T05:47:16.283Z,16
2022-09-28T05:48:16.280Z,15
2022-09-28T05:49:16.331Z,18
2022-09-28T05:50:16.335Z,17
2022-09-28T05:51:16.341Z,16
2022-09-28T05:52:16.366Z,14
2022-09-28T05:53:16.351Z,15
2022-09-28T05:54:16.618Z,15
2022-09-28T05:55:16.388Z,15
2022-09-28T05:56:16.366Z,16
2022-09-28T05:57:16.378Z,16
2022-09-28T05:58:16.417Z,17
2022-09-28T05:59:16.320Z,15
2022-09-28T06:00:16.285Z,14
2022-09-28T06:01:16.398Z,16
2022-09-28T06:02:16.355Z,15
2022-09-28T06:03:16.320Z,15
2022-09-28T06:04:16.337Z,15
2022-09-28T06:05:16.341Z,16
2022-09-28T06:06:16.354Z,17
2022-09-28T06:07:16.348Z,16
2022-09-28T06:08:16.296Z,16
2022-09-28T06:09:16.469Z,17
2022-09-28T06:10:16.374Z,17
2022-09-28T06:11:16.393Z,17
2022-09-28T06:12:16.327Z,18
2022-09-28T06:13:16.426Z,18
2022-09-28T06:14:16.333Z,16
2022-09-28T06:15:16.424Z,18
2022-09-28T06:16:16.369Z,17
2022-09-28T06:17:16.321Z,18
2022-09-28T06:18:16.317Z,17
2022-09-28T06:19:16.337Z,16
2022-09-28T06:20:16.330Z,18
2022-09-28T06:21:16.341Z,17
2022-09-28T06:22:16.341Z,17
2022-09-28T06:23:16.342Z,16
2022-09-28T06:24:16.294Z,16
2022-09-28T06:25:16.304Z,17
2022-09-28T06:26:16.324Z,17
2022-09-28T06:27:16.292Z,17
2022-09-28T06:28:16.399Z,17
2022-09-28T06:29:19.485Z,16
2022-09-28T06:30:16.405Z,17
2022-09-28T06:31:16.429Z,16
2022-09-28T06:32:16.297Z,17
2022-09-28T06:33:16.363Z,17
2022-09-28T06:34:16.817Z,17
2022-09-28T06:35:16.337Z,21
2022-09-28T06:36:16.328Z,17
2022-09-28T06:37:16.338Z,18
2022-09-28T06:38:16.323Z,17
2022-09-28T06:39:16.356Z,15
2022-09-28T06:40:16.345Z,16
2022-09-28T06:41:16.285Z,17
2022-09-28T06:42:16.281Z,16
2022-09-28T06:43:16.408Z,16
2022-09-28T06:44:16.512Z,16
2022-09-28T06:45:16.357Z,16
2022-09-28T06:46:16.439Z,15
2022-09-28T06:47:16.292Z,15
2022-09-28T06:48:16.300Z,16
2022-09-28T06:49:19.472Z,16
2022-09-28T06:50:16.286Z,14
2022-09-28T06:51:16.278Z,14
2022-09-28T06:52:16.332Z,14
2022-09-28T06:53:16.336Z,15
2022-09-28T06:54:16.325Z,14
2022-09-28T06:55:16.350Z,14
2022-09-28T06:56:16.361Z,15
2022-09-28T06:57:16.385Z,13
2022-09-28T06:58:16.381Z,13
2022-09-28T06:59:16.373Z,13
2022-09-28T07:00:16.378Z,14
2022-09-28T07:01:16.459Z,14
2022-09-28T07:02:16.490Z,13
2022-09-28T07:03:16.280Z,12
2022-09-28T07:04:16.300Z,13
2022-09-28T07:05:16.282Z,13
2022-09-28T07:06:16.296Z,13
2022-09-28T07:07:16.273Z,13
2022-09-28T07:08:16.335Z,13
2022-09-28T07:09:29.763Z,13
2022-09-28T07:10:16.355Z,13
2022-09-28T07:11:16.279Z,13
2022-09-28T07:12:16.276Z,12
2022-09-28T07:13:41.423Z,12
2022-09-28T07:14:31.078Z,12
2022-09-28T07:15:16.405Z,14
2022-09-28T07:16:16.356Z,12
2022-09-28T07:17:16.359Z,11
2022-09-28T07:18:16.354Z,12
2022-09-28T07:19:16.280Z,12
2022-09-28T07:20:19.456Z,12
2022-09-28T07:21:27.786Z,12
2022-09-28T07:22:19.426Z,12
2022-09-28T07:23:19.261Z,12
2022-09-28T07:24:16.326Z,12
2022-09-28T07:25:16.335Z,11
2022-09-28T07:26:19.528Z,11
2022-09-28T07:27:16.345Z,12
2022-09-28T07:28:16.398Z,13
2022-09-28T07:29:16.275Z,12
2022-09-28T07:30:16.368Z,11
2022-09-28T07:31:16.394Z,11
2022-09-28T07:32:16.345Z,11
2022-09-28T07:33:16.380Z,11
2022-09-28T07:34:16.291Z,11
2022-09-28T07:35:16.275Z,11
2022-09-28T07:36:16.309Z,11
2022-09-28T07:37:16.306Z,11
2022-09-28T07:38:16.314Z,10
2022-09-28T07:39:16.315Z,9
2022-09-28T07:40:16.382Z,9
2022-09-28T07:41:16.332Z,9
2022-09-28T07:42:16.339Z,9
2022-09-28T07:43:16.369Z,9
2022-09-28T07:44:16.302Z,10
2022-09-28T07:45:16.282Z,9
2022-09-28T07:46:16.418Z,10
2022-09-28T07:47:16.371Z,9
2022-09-28T07:48:16.361Z,8
2022-09-28T07:49:16.284Z,9
2022-09-28T07:50:16.289Z,10
2022-09-28T07:51:16.297Z,9
2022-09-28T07:52:16.408Z,9
2022-09-28T07:53:16.319Z,9
2022-09-28T07:54:16.332Z,10
2022-09-28T07:55:16.339Z,9
2022-09-28T07:56:16.333Z,9
2022-09-28T07:57:16.337Z,8
2022-09-28T07:58:16.298Z,9
2022-09-28T07:59:16.300Z,9
2022-09-28T08:00:16.274Z,9
2022-09-28T08:01:16.394Z,9
2022-09-28T08:02:16.499Z,9
2022-09-28T08:03:16.368Z,9
2022-09-28T08:04:16.393Z,9
2022-09-28T08:05:16.269Z,9
2022-09-28T08:06:16.393Z,9
2022-09-28T08:07:19.413Z,9
2022-09-28T08:08:16.273Z,9
2022-09-28T08:09:16.323Z,9
2022-09-28T08:10:16.310Z,9
2022-09-28T08:11:16.429Z,9
2022-09-28T08:12:16.322Z,9
2022-09-28T08:13:16.336Z,12
2022-09-28T08:14:16.273Z,12
2022-09-28T08:15:16.460Z,11
2022-09-28T08:16:16.531Z,10
2022-09-28T08:17:16.365Z,10
2022-09-28T08:18:16.369Z,11
2022-09-28T08:19:16.376Z,10
2022-09-28T08:20:16.376Z,11
2022-09-28T08:21:16.273Z,11
2022-09-28T08:22:16.270Z,11
2022-09-28T08:23:16.302Z,11
2022-09-28T08:24:16.397Z,11
2022-09-28T08:25:16.321Z,11
2022-09-28T08:26:16.272Z,11
2022-09-28T08:27:16.429Z,11
2022-09-28T08:28:16.284Z,12
2022-09-28T08:29:16.276Z,12
2022-09-28T08:30:16.385Z,12
2022-09-28T08:31:16.437Z,12
2022-09-28T08:32:16.359Z,12
2022-09-28T08:33:16.278Z,12
2022-09-28T08:34:16.293Z,12
2022-09-28T08:35:16.314Z,10
2022-09-28T08:36:16.383Z,10
2022-09-28T08:37:16.287Z,13
2022-09-28T08:38:16.308Z,11
2022-09-28T08:39:16.304Z,10
2022-09-28T08:40:16.363Z,10
2022-09-28T08:41:16.310Z,10
2022-09-28T08:42:16.320Z,12
2022-09-28T08:43:16.345Z,12
2022-09-28T08:44:16.422Z,8
2022-09-28T08:45:16.276Z,9
2022-09-28T08:46:16.322Z,9
2022-09-28T08:47:16.347Z,9
2022-09-28T08:48:16.356Z,8
2022-09-28T08:49:31.861Z,7
2022-09-28T08:50:16.374Z,8
2022-09-28T08:51:16.373Z,7
2022-09-28T08:52:16.391Z,6
2022-09-28T08:53:16.270Z,6
2022-09-28T08:54:16.382Z,6
2022-09-28T08:55:16.278Z,6
2022-09-28T08:56:16.299Z,5
2022-09-28T08:57:16.270Z,5
2022-09-28T08:58:16.338Z,6
2022-09-28T08:59:16.317Z,7
2022-09-28T09:00:16.274Z,5
2022-09-28T09:01:16.386Z,6
2022-09-28T09:02:16.398Z,6
2022-09-28T09:03:16.343Z,8
2022-09-28T09:04:16.271Z,8
2022-09-28T09:05:16.364Z,8
2022-09-28T09:06:18.509Z,7
2022-09-28T09:07:16.364Z,6
2022-09-28T09:08:16.382Z,5
2022-09-28T09:09:16.260Z,4
2022-09-28T09:10:16.372Z,4
2022-09-28T09:11:16.269Z,5
2022-09-28T09:12:16.298Z,4
2022-09-28T09:13:16.330Z,5
2022-09-28T09:14:16.420Z,5
2022-09-28T09:15:16.319Z,4
2022-09-28T09:16:16.389Z,5
2022-09-28T09:17:16.338Z,5
2022-09-28T09:18:19.841Z,5
2022-09-28T09:19:16.267Z,7
2022-09-28T09:20:16.363Z,9
2022-09-28T09:21:16.368Z,8
2022-09-28T09:22:16.382Z,8
2022-09-28T09:23:16.281Z,6
2022-09-28T09:24:16.385Z,6
2022-09-28T09:25:16.280Z,6
2022-09-28T09:26:20.532Z,6
2022-09-28T09:27:16.410Z,4
2022-09-28T09:28:16.302Z,4
2022-09-28T09:29:16.429Z,4
2022-09-28T09:30:19.422Z,3
2022-09-28T09:31:19.562Z,3
2022-09-28T09:32:16.294Z,4
2022-09-28T09:33:16.273Z,3
2022-09-28T09:34:16.398Z,3
2022-09-28T09:35:16.454Z,4
2022-09-28T09:36:16.282Z,3
2022-09-28T09:37:16.323Z,2
2022-09-28T09:38:16.355Z,2
2022-09-28T09:39:16.259Z,2
2022-09-28T09:40:16.357Z,2
2022-09-28T09:41:16.281Z,2
2022-09-28T09:42:16.310Z,3
2022-09-28T09:43:16.311Z,2
2022-09-28T09:44:16.309Z,3
2022-09-28T09:45:16.321Z,3
2022-09-28T09:46:16.431Z,3
2022-09-28T09:47:16.334Z,3
2022-09-28T09:48:16.272Z,3
2022-09-28T09:49:16.275Z,3
2022-09-28T09:50:16.345Z,3
2022-09-28T09:51:16.362Z,3
2022-09-28T09:52:16.357Z,2
2022-09-28T09:53:16.370Z,6
2022-09-28T09:54:16.373Z,10
2022-09-28T09:55:16.267Z,7
2022-09-28T09:56:16.294Z,5
2022-09-28T09:57:16.279Z,3
2022-09-28T09:58:16.292Z,2
2022-09-28T09:59:16.353Z,2
2022-09-28T10:00:16.305Z,3
2022-09-28T10:01:16.513Z,2
2022-09-28T10:02:16.356Z,2
2022-09-28T10:03:16.316Z,2
2022-09-28T10:04:16.336Z,2
2022-09-28T10:05:16.337Z,2
2022-09-28T10:06:16.362Z,2
2022-09-28T10:07:16.355Z,2
2022-09-28T10:08:16.349Z,2
2022-09-28T10:09:16.344Z,2
2022-09-28T10:10:16.383Z,2
2022-09-28T10:11:16.309Z,2
2022-09-28T10:12:16.270Z,2
2022-09-28T10:13:16.283Z,2
2022-09-28T10:14:16.296Z,2
2022-09-28T10:15:16.309Z,2
2022-09-28T10:16:16.432Z,2
2022-09-28T10:17:16.315Z,2
2022-09-28T10:18:16.312Z,2
2022-09-28T10:19:16.324Z,2
2022-09-28T10:20:16.325Z,2
2022-09-28T10:21:16.361Z,2
2022-09-28T10:22:16.266Z,2
2022-09-28T10:23:16.350Z,2
2022-09-28T10:24:16.317Z,2
2022-09-28T10:25:16.282Z,2
2022-09-28T10:26:16.398Z,2
2022-09-28T10:27:16.285Z,2
2022-09-28T10:28:16.314Z,2
2022-09-28T10:29:16.374Z,3
2022-09-28T10:30:16.317Z,4
2022-09-28T10:31:16.417Z,5
2022-09-28T10:32:16.413Z,11
2022-09-28T10:33:16.324Z,12
2022-09-28T10:34:16.390Z,8
2022-09-28T10:35:16.348Z,4
2022-09-28T10:36:16.283Z,3
2022-09-28T10:37:16.308Z,5
2022-09-28T10:38:16.366Z,5
2022-09-28T10:39:16.353Z,6
2022-09-28T10:40:16.413Z,4
2022-09-28T10:41:16.378Z,4
2022-09-28T10:42:16.370Z,4
2022-09-28T10:43:16.290Z,2
2022-09-28T10:44:16.314Z,2
2022-09-28T10:45:16.290Z,3
2022-09-28T10:46:16.394Z,3
2022-09-28T10:47:16.405Z,3
2022-09-28T10:48:16.303Z,4
2022-09-28T10:49:16.316Z,7
2022-09-28T10:50:16.266Z,7
2022-09-28T10:51:16.272Z,5
2022-09-28T10:52:16.262Z,5
2022-09-28T10:53:16.264Z,5
2022-09-28T10:54:16.391Z,5
2022-09-28T10:55:16.323Z,4
2022-09-28T10:56:16.281Z,3
2022-09-28T10:57:16.276Z,4
2022-09-28T10:58:16.391Z,2
2022-09-28T10:59:16.301Z,2
2022-09-28T11:00:16.287Z,3
2022-09-28T11:01:16.404Z,4
2022-09-28T11:02:16.424Z,2
2022-09-28T11:03:16.401Z,2
2022-09-28T11:04:16.484Z,1
2022-09-28T11:05:16.320Z,2
2022-09-28T11:06:16.340Z,3
2022-09-28T11:07:17.345Z,1
2022-09-28T11:08:16.393Z,2
2022-09-28T11:09:16.513Z,3
2022-09-28T11:10:16.468Z,2
2022-09-28T11:11:16.367Z,2
2022-09-28T11:12:16.264Z,2
2022-09-28T11:13:16.299Z,1
2022-09-28T11:14:16.273Z,1
2022-09-28T11:15:16.283Z,1
2022-09-28T11:16:16.366Z,2
2022-09-28T11:17:16.295Z,2
2022-09-28T11:18:16.321Z,1
2022-09-28T11:19:16.424Z,1
2022-09-28T11:20:16.467Z,1
2022-09-28T11:21:16.336Z,1
2022-09-28T11:22:16.325Z,1
2022-09-28T11:23:16.335Z,1
2022-09-28T11:24:19.049Z,1
2022-09-28T11:25:16.355Z,1
2022-09-28T11:26:18.834Z,2
2022-09-28T11:27:16.360Z,2
2022-09-28T11:28:16.309Z,2
2022-09-28T11:29:16.381Z,2
2022-09-28T11:30:16.330Z,2
2022-09-28T11:31:16.593Z,1
2022-09-28T11:32:16.296Z,1
2022-09-28T11:33:16.280Z,2
2022-09-28T11:34:16.356Z,2
2022-09-28T11:35:16.265Z,1
2022-09-28T11:36:16.303Z,2
2022-09-28T11:37:16.324Z,3
2022-09-28T11:38:16.333Z,3
2022-09-28T11:39:16.325Z,4
2022-09-28T11:40:16.478Z,3
2022-09-28T11:41:16.456Z,2
2022-09-28T11:42:16.752Z,2
2022-09-28T11:43:16.899Z,4
2022-09-28T11:44:16.361Z,5
2022-09-28T11:45:16.373Z,7
2022-09-28T11:46:16.627Z,3
2022-09-28T11:47:16.468Z,2
2022-09-28T11:48:16.399Z,1
2022-09-28T11:49:16.396Z,2
2022-09-28T11:50:21.347Z,1
2022-09-28T11:51:16.353Z,1
2022-09-28T11:52:16.538Z,1
2022-09-28T11:53:16.601Z,2
2022-09-28T11:54:16.660Z,3
2022-09-28T11:55:16.298Z,3
2022-09-28T11:56:16.619Z,2
2022-09-28T11:57:16.341Z,2
2022-09-28T11:58:16.785Z,2
2022-09-28T11:59:16.289Z,2
2022-09-28T12:00:16.356Z,2
2022-09-28T12:01:18.910Z,1
2022-09-28T12:02:16.481Z,1
2022-09-28T12:03:16.569Z,1
2022-09-28T12:04:16.359Z,1
2022-09-28T12:05:20.698Z,1
2022-09-28T12:06:16.428Z,1
2022-09-28T12:07:16.356Z,1
2022-09-28T12:08:16.265Z,1
2022-09-28T12:09:16.331Z,1
2022-09-28T12:10:16.327Z,1
2022-09-28T12:11:16.341Z,2
2022-09-28T12:12:16.285Z,2
2022-09-28T12:13:16.390Z,1
2022-09-28T12:14:16.365Z,1
2022-09-28T12:15:16.358Z,1
2022-09-28T12:16:53.044Z,1
2022-09-28T12:17:19.952Z,1
2022-09-28T12:18:16.442Z,1
2022-09-28T12:19:16.462Z,1
2022-09-28T12:20:16.563Z,1
2022-09-28T12:21:16.325Z,1
2022-09-28T12:22:16.307Z,1
2022-09-28T12:23:16.309Z,1
2022-09-28T12:24:16.320Z,1
2022-09-28T12:25:16.269Z,1
2022-09-28T12:26:16.351Z,2
2022-09-28T12:27:16.345Z,1
2022-09-28T12:28:16.360Z,1
2022-09-28T12:29:16.420Z,1
2022-09-28T12:30:16.274Z,2
2022-09-28T12:31:16.575Z,1
2022-09-28T12:32:16.380Z,1
2022-09-28T12:33:16.279Z,1
2022-09-28T12:34:16.281Z,1
2022-09-28T12:35:16.284Z,1
2022-09-28T12:36:16.430Z,2
2022-09-28T12:37:16.401Z,2
2022-09-28T12:38:16.308Z,2
2022-09-28T12:39:30.919Z,2
2022-09-28T12:40:16.358Z,2
2022-09-28T12:41:16.350Z,2
2022-09-28T12:42:16.334Z,2
2022-09-28T12:43:16.358Z,2
2022-09-28T12:44:16.346Z,2
2022-09-28T12:45:16.366Z,2
2022-09-28T12:46:16.457Z,2
2022-09-28T12:47:16.265Z,3
2022-09-28T12:48:16.272Z,3
2022-09-28T12:51:16.289Z,3
2022-09-28T12:52:16.343Z,4
2022-09-28T12:53:16.400Z,3
2022-09-28T12:54:16.504Z,2
2022-09-28T12:55:16.322Z,2
2022-09-28T12:56:18.074Z,2
2022-09-28T12:57:16.289Z,2
2022-09-28T12:58:16.303Z,2
2022-09-28T12:59:16.437Z,2
2022-09-28T13:00:16.309Z,3
2022-09-28T13:01:16.354Z,5
2022-09-28T13:02:16.362Z,6
2022-09-28T13:03:16.269Z,8
2022-09-28T13:04:16.267Z,7
2022-09-28T13:05:16.275Z,5
2022-09-28T13:06:16.301Z,5
2022-09-28T13:07:16.366Z,4
2022-09-28T13:08:16.326Z,5
2022-09-28T13:09:16.354Z,3
2022-09-28T13:10:16.320Z,3
2022-09-28T13:11:16.345Z,2
2022-09-28T13:12:16.277Z,4
2022-09-28T13:13:16.292Z,2
2022-09-28T13:14:16.337Z,3
2022-09-28T13:15:16.324Z,2
2022-09-28T13:16:16.412Z,2
2022-09-28T13:17:16.348Z,1
2022-09-28T13:18:16.357Z,1
2022-09-28T13:19:16.416Z,2
2022-09-28T13:20:16.367Z,2
2022-09-28T13:21:16.410Z,3
2022-09-28T13:22:16.274Z,2
2022-09-28T13:23:16.381Z,2
2022-09-28T13:24:31.468Z,2
2022-09-28T13:25:16.297Z,2
2022-09-28T13:26:16.299Z,2
2022-09-28T13:27:16.332Z,2
2022-09-28T13:28:16.340Z,4
2022-09-28T13:29:16.370Z,3
2022-09-28T13:30:16.342Z,1
2022-09-28T13:31:16.361Z,2
2022-09-28T13:32:16.271Z,1
2022-09-28T13:33:16.367Z,1
2022-09-28T13:34:16.401Z,2
2022-09-28T13:35:16.371Z,1
2022-09-28T13:36:16.385Z,1
2022-09-28T13:37:16.274Z,2
2022-09-28T13:38:16.399Z,1
2022-09-28T13:39:16.389Z,1
2022-09-28T13:40:16.357Z,1
2022-09-28T13:41:16.305Z,1
2022-09-28T13:42:16.307Z,1
2022-09-28T13:43:19.616Z,1
2022-09-28T13:44:16.367Z,2
2022-09-28T13:45:16.342Z,1
2022-09-28T13:46:16.472Z,2
2022-09-28T13:47:20.531Z,1
2022-09-28T13:48:16.342Z,2
2022-09-28T13:49:16.357Z,6
2022-09-28T13:50:16.374Z,2
2022-09-28T13:51:16.388Z,1
2022-09-28T13:52:16.325Z,1
2022-09-28T13:53:16.312Z,2
2022-09-28T13:54:16.406Z,1
2022-09-28T13:55:16.337Z,1
2022-09-28T13:56:16.311Z,1
2022-09-28T13:57:16.317Z,1
2022-09-28T13:58:16.327Z,1
2022-09-28T13:59:16.317Z,2
2022-09-28T14:00:16.330Z,2
2022-09-28T14:01:16.383Z,2
2022-09-28T14:02:16.396Z,2
2022-09-28T14:03:16.440Z,1
2022-09-28T14:04:16.374Z,2
2022-09-28T14:05:16.348Z,1
2022-09-28T14:07:16.435Z,1
2022-09-28T14:08:16.383Z,2
2022-09-28T14:09:16.441Z,2
2022-09-28T14:10:16.386Z,2
2022-09-28T14:11:16.347Z,2
2022-09-28T14:12:16.296Z,1
2022-09-28T14:13:16.348Z,2
2022-09-28T14:14:16.306Z,1
2022-09-28T14:15:16.321Z,2
2022-09-28T14:16:16.431Z,2
2022-09-28T14:17:16.328Z,2
2022-09-28T14:18:16.351Z,2
2022-09-28T14:19:16.433Z,1
2022-09-28T14:20:16.266Z,2
2022-09-28T14:21:16.370Z,2
2022-09-28T14:22:16.367Z,1
2022-09-28T14:23:16.385Z,2
2022-09-28T14:24:16.369Z,2
2022-09-28T14:25:16.377Z,2
2022-09-28T14:26:16.401Z,1
2022-09-28T14:27:16.295Z,2
2022-09-28T14:28:16.516Z,2
2022-09-28T14:29:16.355Z,2
2022-09-28T14:30:16.286Z,2
2022-09-28T14:31:16.332Z,2
2022-09-28T14:32:16.323Z,3
2022-09-28T14:33:16.329Z,2
2022-09-28T14:34:16.358Z,3
2022-09-28T14:35:18.788Z,2
2022-09-28T14:36:16.359Z,2
2022-09-28T14:37:16.354Z,2
2022-09-28T14:38:16.358Z,2
2022-09-28T14:39:16.389Z,2
2022-09-28T14:40:16.427Z,2
2022-09-28T14:41:16.402Z,2